Humidity-temperature Sensor

Selected Measurement Type: Air Temperature

 
Air Temperature [°C]     6 entries per hour
Showing data from 3/31/2023 (00:00:00 Z) to 3/28/2023 (00:01:00 Z)
Previous Next [ Day | 3-Days | 7-Days ]
First Last
Prev [ Day | 3-Days | 7-Days ] Next
First Last

Start Time:     :
End Time:     :     
Time (in GMT) :00 :50 :40 :30 :20 :10
Previous Next [ Day | 3-Days | 7-Days ]
First Last
Prev [ Day | 3-Days | 7-Days ] Next
First Last


123 => good data
MM => data is determined as missing
-- => data not received/configured
Back to Top Back to Top
3/31/2023 00:00 to 23:10 27.73 27.84 27.77 27.94 27.67 27.54
3/30/2023 23:00 to 22:10 28.17 27.90 28.31 28.35 28.24 28.25
3/30/2023 22:00 to 21:10 28.24 28.23 28.16 28.19 28.23 28.16
3/30/2023 21:00 to 20:10 28.28 28.14 28.21 28.23 28.21 27.98
3/30/2023 20:00 to 19:10 27.82 28.03 28.05 27.95 27.95 27.95
3/30/2023 19:00 to 18:10 27.75 27.96 27.92 27.98 27.79 27.95
3/30/2023 18:00 to 17:10 27.89 27.88 27.91 27.91 27.95 27.97
3/30/2023 17:00 to 16:10 27.92 28.00 27.91 27.84 28.00 27.84
3/30/2023 16:00 to 15:10 27.88 27.93 27.80 27.73 27.68 27.73
3/30/2023 15:00 to 14:10 27.74 27.65 27.76 27.75 27.72 27.85
3/30/2023 14:00 to 13:10 27.69 27.79 27.72 27.96 27.91 27.69
3/30/2023 13:00 to 12:10 27.89 27.86 27.94 27.88 27.92 27.96
3/30/2023 12:00 to 11:10 27.89 27.94 27.95 28.00 27.91 28.01
3/30/2023 11:00 to 10:10 27.90 27.88 28.00 27.91 27.92 27.98
3/30/2023 10:00 to 9:10 27.90 27.87 27.84 27.82 27.87 27.87
3/30/2023 09:00 to 8:10 27.87 27.97 27.81 28.06 27.84 27.91
3/30/2023 08:00 to 7:10 27.91 27.80 28.18 28.13 28.15 28.05
3/30/2023 07:00 to 6:10 28.22 28.17 28.20 28.25 28.08 28.12
3/30/2023 06:00 to 5:10 28.15 28.10 28.08 28.20 28.14 28.24
3/30/2023 05:00 to 4:10 27.93 27.50 28.36 28.24 28.18 28.21
3/30/2023 04:00 to 3:10 28.16 28.35 28.21 28.19 28.21 28.20
3/30/2023 03:00 to 2:10 28.19 28.12 28.14 28.18 28.21 28.19
3/30/2023 02:00 to 1:10 28.28 28.10 28.16 28.30 28.18 28.12
3/30/2023 01:00 to 0:10 28.10 28.16 28.21 28.37 28.14 28.15
3/30/2023 00:00 to 23:10 28.33 28.33 28.25 28.30 28.28 28.19
3/29/2023 23:00 to 22:10 28.19 28.16 28.04 28.20 28.40 28.33
3/29/2023 22:00 to 21:10 28.28 28.13 28.16 28.00 27.94 27.95
3/29/2023 21:00 to 20:10 27.69 27.31 26.83 27.10 28.03 28.00
3/29/2023 20:00 to 19:10 27.91 27.96 28.06 28.03 27.81 27.90
3/29/2023 19:00 to 18:10 27.99 27.51 27.67 27.67 27.44 27.89
3/29/2023 18:00 to 17:10 27.93 27.80 27.83 27.91 27.73 27.79
3/29/2023 17:00 to 16:10 28.02 27.88 28.01 27.97 28.01 27.84
3/29/2023 16:00 to 15:10 27.78 27.83 27.91 27.86 27.85 27.89
3/29/2023 15:00 to 14:10 27.92 27.82 27.76 27.81 27.86 27.85
3/29/2023 14:00 to 13:10 27.78 27.78 27.92 27.81 27.88 27.85
3/29/2023 13:00 to 12:10 27.90 27.85 27.86 27.79 27.92 27.92
3/29/2023 12:00 to 11:10 27.88 27.87 27.93 27.92 27.91 27.98
3/29/2023 11:00 to 10:10 28.02 27.99 27.96 27.76 27.52 27.74
3/29/2023 10:00 to 9:10 27.73 27.90 27.74 27.68 27.76 27.75
3/29/2023 09:00 to 8:10 27.74 27.68 27.62 27.68 27.74 27.75
3/29/2023 08:00 to 7:10 27.78 27.58 27.80 27.78 27.86 27.91
3/29/2023 07:00 to 6:10 27.89 27.86 27.79 27.91 27.99 27.91
3/29/2023 06:00 to 5:10 27.88 27.67 27.36 27.49 27.87 27.97
3/29/2023 05:00 to 4:10 27.86 27.92 27.84 27.52 27.40 27.64
3/29/2023 04:00 to 3:10 27.70 27.54 27.50 27.51 27.39 27.31
3/29/2023 03:00 to 2:10 27.14 26.86 26.77 26.82 26.62 26.39
3/29/2023 02:00 to 1:10 26.61 26.69 26.77 26.37 26.86 26.52
3/29/2023 01:00 to 0:10 26.97 26.92 27.81 27.68 27.71 27.68
3/29/2023 00:00 to 23:10 27.73 27.63 27.66 27.62 27.54 27.65
3/28/2023 23:00 to 22:10 27.50 27.43 27.28 27.28 28.02 28.01
3/28/2023 22:00 to 21:10 27.89 27.93 27.86 27.88 27.97 27.92
3/28/2023 21:00 to 20:10 27.84 27.36 27.25 27.23 27.25 26.92
3/28/2023 20:00 to 19:10 27.05 26.72 26.87 26.90 26.61 26.57
3/28/2023 19:00 to 18:10 26.52 26.47 26.38 26.14 26.19 26.25
3/28/2023 18:00 to 17:10 26.68 26.70 26.77 26.98 27.16 26.86
3/28/2023 17:00 to 16:10 26.64 26.80 26.79 26.80 26.82 26.65
3/28/2023 16:00 to 15:10 26.15 26.28 26.49 26.80 27.47 27.22
3/28/2023 15:00 to 14:10 27.56 27.56 27.49 27.40 27.16 27.37
3/28/2023 14:00 to 13:10 27.22 27.15 26.86 26.78 27.15 27.07
3/28/2023 13:00 to 12:10 26.96 27.09 27.23 27.24 27.31 27.18
3/28/2023 12:00 to 11:10 27.45 27.57 27.53 27.57 27.51 27.51
3/28/2023 11:00 to 10:10 27.47 27.88 27.76 27.72 27.80 27.83
3/28/2023 10:00 to 9:10 27.78 27.80 27.85 27.61 27.60 27.41
3/28/2023 09:00 to 8:10 27.29 27.08 27.04 26.68 27.04 26.87
3/28/2023 08:00 to 7:10 26.54 26.85 26.88 26.96 27.79 27.73
3/28/2023 07:00 to 6:10 27.56 27.53 27.92 27.96 27.94 27.78
3/28/2023 06:00 to 5:10 27.77 27.43 27.89 27.75 27.89 27.90
3/28/2023 05:00 to 4:10 27.89 27.85 27.85 27.84 27.87 27.87
3/28/2023 04:00 to 3:10 27.85 27.81 27.87 27.81 27.89 27.90
3/28/2023 03:00 to 2:10 27.80 27.87 27.89 27.85 27.85 27.88
3/28/2023 02:00 to 1:10 27.73 27.78 27.79 27.70 27.71 27.74
3/28/2023 01:00 to 0:10 27.75 27.74 27.66 27.73 27.70 27.70